Time;durP1;ratioP1;P1;durP2;ratioP2;P2;SDS_P1;SDS_P2;PMS_P1;PMS_P2;Temp;Humidity;BMP_temperature;BMP_pressure;BME280_temperature;BME280_humidity;BME280_pressure;Samples;Min_cycle;Max_cycle;Signal;HPM_P1;HPM_P2
2021/07/10 00:00:51;;;;;;;23.92;20.25;;;16.00;98.70;;;;;;4977967;28;20101;-84
2021/07/10 00:03:17;;;;;;;19.70;17.23;;;16.00;98.70;;;;;;4981064;28;20053;-84
2021/07/10 00:05:43;;;;;;;24.50;19.98;;;16.00;98.80;;;;;;4975601;28;20737;-85
2021/07/10 00:08:11;;;;;;;26.10;20.25;;;16.00;98.90;;;;;;4976817;28;20050;-84
2021/07/10 00:10:38;;;;;;;23.85;18.98;;;15.90;98.80;;;;;;4987948;28;20041;-84
2021/07/10 00:13:06;;;;;;;24.95;19.20;;;15.80;98.80;;;;;;4984386;28;20042;-85
2021/07/10 00:15:40;;;;;;;24.98;20.20;;;15.80;98.80;;;;;;4983304;28;20074;-84
2021/07/10 00:18:11;;;;;;;27.38;21.58;;;15.70;98.90;;;;;;4950477;28;20043;-86
2021/07/10 00:20:50;;;;;;;25.85;19.48;;;15.70;99.00;;;;;;4966680;28;20053;-85
2021/07/10 00:23:17;;;;;;;31.45;22.08;;;15.60;99.10;;;;;;4967705;28;20456;-84
2021/07/10 00:25:48;;;;;;;23.40;19.15;;;15.60;99.10;;;;;;4971438;28;20056;-84
2021/07/10 00:28:14;;;;;;;24.50;19.90;;;15.50;99.00;;;;;;4970308;28;20034;-85
2021/07/10 00:30:43;;;;;;;27.95;21.42;;;15.40;99.10;;;;;;4988197;28;20046;-85
2021/07/10 00:33:11;;;;;;;33.33;23.08;;;15.40;99.10;;;;;;4954916;28;20067;-85
2021/07/10 00:35:39;;;;;;;41.05;24.60;;;15.30;99.20;;;;;;4987762;28;20053;-85
2021/07/10 00:38:23;;;;;;;35.15;22.33;;;15.20;99.30;;;;;;4998861;28;20050;-85
2021/07/10 00:40:51;;;;;;;36.17;23.15;;;15.20;99.60;;;;;;4970861;28;20101;-85
2021/07/10 00:43:32;;;;;;;40.53;23.70;;;15.10;99.70;;;;;;4990237;28;20101;-86
2021/07/10 00:46:34;;;;;;;28.52;20.95;;;15.10;99.90;;;;;;4977726;28;20038;-84
2021/07/10 00:49:03;;;;;;;36.42;22.50;;;15.10;99.80;;;;;;4985174;28;20042;-86
2021/07/10 00:51:50;;;;;;;21.98;19.10;;;15.10;99.60;;;;;;4983081;28;20046;-87
2021/07/10 00:54:16;;;;;;;22.30;17.33;;;15.00;99.90;;;;;;4984096;28;20038;-85
2021/07/10 00:56:57;;;;;;;23.50;19.38;;;15.00;99.60;;;;;;4990482;28;20057;-85
2021/07/10 00:59:25;;;;;;;18.83;14.70;;;15.00;99.80;;;;;;4985824;28;20046;-83
2021/07/10 01:01:52;;;;;;;16.90;14.18;;;15.00;99.70;;;;;;4992109;28;20042;-84
2021/07/10 01:04:24;;;;;;;14.70;11.23;;;15.00;99.50;;;;;;4984591;28;20042;-85
2021/07/10 01:06:50;;;;;;;15.13;13.10;;;14.90;99.30;;;;;;4962748;28;20123;-85
2021/07/10 01:09:18;;;;;;;18.67;15.13;;;14.80;99.30;;;;;;4964652;28;20081;-84
2021/07/10 01:11:55;;;;;;;19.85;17.23;;;14.70;99.60;;;;;;4968862;28;20378;-85
2021/07/10 01:14:26;;;;;;;20.73;17.58;;;14.70;99.80;;;;;;4991103;28;20069;-85
2021/07/10 01:16:53;;;;;;;19.10;16.50;;;14.70;99.90;;;;;;4989821;28;20045;-84
2021/07/10 01:19:26;;;;;;;17.38;14.57;;;14.70;99.90;;;;;;4985890;28;20077;-85
2021/07/10 01:22:20;;;;;;;21.63;16.80;;;14.70;99.90;;;;;;4961854;28;20559;-85
2021/07/10 01:24:52;;;;;;;15.90;14.20;;;14.70;99.70;;;;;;4989149;28;20038;-85
2021/07/10 01:27:19;;;;;;;16.08;13.95;;;14.60;99.40;;;;;;4985706;28;20049;-86
2021/07/10 01:29:46;;;;;;;14.60;12.95;;;14.50;99.50;;;;;;4985229;28;20046;-85
2021/07/10 01:32:16;;;;;;;14.85;12.65;;;14.40;99.50;;;;;;4967485;28;20039;-85
2021/07/10 01:34:49;;;;;;;17.13;14.07;;;14.40;99.50;;;;;;4980984;28;20426;-85
2021/07/10 01:37:15;;;;;;;;;;;14.40;99.40;;;;;;4954802;28;20544;-86
2021/07/10 01:39:42;;;;;;;28.85;19.35;;;14.40;99.30;;;;;;4984753;28;19921;-87
2021/07/10 01:42:09;;;;;;;33.42;21.08;;;14.30;99.30;;;;;;4966715;28;20043;-86
2021/07/10 01:44:36;;;;;;;22.85;17.65;;;14.30;99.30;;;;;;4988028;28;20053;-87
2021/07/10 01:47:02;;;;;;;23.67;18.20;;;14.30;99.50;;;;;;4958669;28;20046;-87
2021/07/10 01:49:28;;;;;;;18.40;15.43;;;14.30;99.60;;;;;;4969645;28;20042;-86
2021/07/10 01:51:54;;;;;;;18.85;14.50;;;14.30;99.50;;;;;;4965122;28;20105;-86
2021/07/10 01:54:20;;;;;;;23.25;17.77;;;14.30;99.50;;;;;;4971169;28;20057;-85
2021/07/10 01:56:46;;;;;;;26.38;18.95;;;14.20;99.40;;;;;;4971453;28;20034;-86
2021/07/10 01:59:12;;;;;;;35.50;22.23;;;14.10;99.40;;;;;;4957899;28;20425;-87
2021/07/10 02:01:40;;;;;;;48.10;23.88;;;14.10;99.60;;;;;;4993150;28;20041;-87
2021/07/10 02:04:08;;;;;;;31.65;20.70;;;14.10;99.70;;;;;;4974703;28;20059;-86
2021/07/10 02:06:36;;;;;;;22.80;16.85;;;14.00;99.90;;;;;;4992004;28;20157;-86
2021/07/10 02:09:21;;;;;;;33.00;20.63;;;14.00;99.90;;;;;;4964781;28;20525;-87
2021/07/10 02:11:49;;;;;;;23.58;17.95;;;13.90;99.90;;;;;;4975838;28;20034;-86
2021/07/10 02:14:16;;;;;;;17.77;13.13;;;14.00;99.90;;;;;;4992178;28;20046;-87
2021/07/10 02:16:43;;;;;;;14.88;13.25;;;13.90;99.90;;;;;;4971809;28;20584;-86
2021/07/10 02:19:09;;;;;;;17.95;15.32;;;13.80;99.80;;;;;;4988644;28;20042;-86
2021/07/10 02:21:36;;;;;;;20.13;16.17;;;13.80;99.90;;;;;;4971317;28;20058;-87
2021/07/10 02:24:05;;;;;;;24.10;18.73;;;13.70;99.90;;;;;;4991492;28;20100;-87
2021/07/10 02:26:33;;;;;;;24.83;17.33;;;13.70;99.90;;;;;;4995712;28;20038;-87
2021/07/10 02:29:01;;;;;;;23.45;16.90;;;13.70;99.90;;;;;;4958085;28;20320;-86
2021/07/10 02:31:45;;;;;;;23.40;16.75;;;13.70;99.90;;;;;;4989053;28;20041;-86
2021/07/10 02:34:12;;;;;;;19.42;15.55;;;13.70;99.90;;;;;;4980809;28;20161;-86
2021/07/10 02:36:41;;;;;;;21.17;15.50;;;13.70;99.90;;;;;;4959269;28;20082;-86
2021/07/10 02:39:08;;;;;;;23.67;16.10;;;13.80;99.90;;;;;;4994236;28;20129;-87
2021/07/10 02:41:34;;;;;;;24.45;16.73;;;13.80;99.90;;;;;;4993883;28;20137;-86
2021/07/10 02:44:00;;;;;;;22.92;16.85;;;13.90;99.90;;;;;;4988025;28;20121;-86
2021/07/10 02:46:26;;;;;;;32.85;19.15;;;13.80;99.90;;;;;;4951774;28;20108;-86
2021/07/10 02:48:53;;;;;;;40.20;22.08;;;13.80;99.90;;;;;;4965422;28;20046;-88
2021/07/10 02:51:19;;;;;;;29.45;20.05;;;13.90;99.90;;;;;;4955164;28;20038;-87
2021/07/10 02:53:47;;;;;;;53.65;25.77;;;13.90;99.90;;;;;;4967823;28;20069;-87
2021/07/10 02:56:12;;;;;;;41.60;23.58;;;13.90;99.90;;;;;;4950195;28;20038;-86
2021/07/10 02:58:41;;;;;;;27.88;19.58;;;14.00;99.90;;;;;;4955035;28;20046;-86
2021/07/10 03:01:07;;;;;;;29.55;20.67;;;14.00;99.90;;;;;;4979835;28;20038;-87
2021/07/10 03:03:34;;;;;;;31.95;19.27;;;14.00;99.90;;;;;;4988292;28;20042;-87
2021/07/10 03:06:00;;;;;;;27.67;18.98;;;14.10;99.90;;;;;;5000390;28;20129;-86
2021/07/10 03:08:26;;;;;;;30.90;20.85;;;14.10;99.90;;;;;;4992776;28;20110;-87
2021/07/10 03:10:52;;;;;;;34.42;22.35;;;14.20;99.90;;;;;;4990564;28;20049;-85
2021/07/10 03:13:19;;;;;;;29.40;20.02;;;14.20;99.90;;;;;;4974364;28;20649;-86
2021/07/10 03:16:04;;;;;;;26.67;19.15;;;14.20;99.90;;;;;;4971022;28;20038;-85
2021/07/10 03:18:30;;;;;;;28.35;18.63;;;14.20;99.90;;;;;;4970661;28;21316;-88
2021/07/10 03:20:56;;;;;;;30.77;20.63;;;14.10;99.90;;;;;;4970547;28;20062;-86
2021/07/10 03:23:22;;;;;;;30.42;20.95;;;14.20;99.90;;;;;;4983536;28;20440;-87
2021/07/10 03:25:49;;;;;;;36.72;23.27;;;14.20;99.90;;;;;;4993029;28;20709;-88
2021/07/10 03:28:38;;;;;;;31.23;19.65;;;14.20;99.90;;;;;;4971988;28;20967;-87
2021/07/10 03:31:05;;;;;;;26.08;17.73;;;14.20;99.90;;;;;;4987379;28;20046;-88
2021/07/10 03:33:35;;;;;;;31.35;20.60;;;14.10;99.90;;;;;;4983046;28;20038;-87
2021/07/10 03:36:05;;;;;;;29.45;21.58;;;14.10;99.90;;;;;;4965031;28;20041;-87
2021/07/10 03:38:32;;;;;;;;;;;14.10;99.90;;;;;;4967808;28;20050;-86
2021/07/10 03:40:58;;;;;;;33.50;21.48;;;14.10;99.90;;;;;;4989540;28;19928;-87
2021/07/10 03:43:24;;;;;;;28.27;20.35;;;14.10;99.90;;;;;;4984432;28;20053;-87
2021/07/10 03:45:52;;;;;;;27.92;19.17;;;14.10;99.90;;;;;;4964473;28;20125;-88
2021/07/10 03:48:22;;;;;;;26.83;19.27;;;14.10;99.90;;;;;;4979032;28;20034;-86
2021/07/10 03:50:48;;;;;;;24.05;17.98;;;14.10;99.90;;;;;;4991069;28;20493;-86
2021/07/10 03:53:14;;;;;;;25.75;17.42;;;14.10;99.90;;;;;;4988497;28;20066;-86
2021/07/10 03:55:43;;;;;;;26.98;17.65;;;14.10;99.90;;;;;;4987041;28;20066;-86
2021/07/10 03:58:09;;;;;;;22.02;17.10;;;14.10;99.90;;;;;;4965328;28;20133;-85
2021/07/10 04:00:36;;;;;;;37.35;20.58;;;14.10;99.90;;;;;;4970349;28;20110;-84
2021/07/10 04:03:03;;;;;;;49.33;22.75;;;14.10;99.90;;;;;;4948443;28;20035;-85
2021/07/10 04:05:29;;;;;;;33.95;19.98;;;14.10;99.90;;;;;;4983951;28;20097;-85
2021/07/10 04:07:55;;;;;;;43.28;23.40;;;14.10;99.90;;;;;;4967351;28;20050;-85
2021/07/10 04:10:21;;;;;;;53.53;24.55;;;14.00;99.90;;;;;;4927688;28;20684;-85
2021/07/10 04:12:47;;;;;;;53.40;26.42;;;14.00;99.90;;;;;;4957949;28;20037;-85
2021/07/10 04:15:17;;;;;;;25.58;19.25;;;14.00;99.90;;;;;;4968070;28;20054;-86
2021/07/10 04:17:44;;;;;;;38.17;22.17;;;14.10;99.90;;;;;;4986447;28;20038;-85
2021/07/10 04:20:11;;;;;;;28.23;20.67;;;14.10;99.90;;;;;;4986702;28;20038;-85
2021/07/10 04:22:39;;;;;;;24.48;18.90;;;14.10;99.90;;;;;;4985928;28;20045;-87
2021/07/10 04:25:10;;;;;;;19.80;14.80;;;14.20;99.90;;;;;;4986778;28;20544;-86
2021/07/10 04:27:38;;;;;;;23.58;17.60;;;14.20;99.90;;;;;;4986193;28;20038;-86
2021/07/10 04:30:09;;;;;;;22.73;17.73;;;14.20;99.90;;;;;;4986542;28;20061;-85
2021/07/10 04:32:36;;;;;;;23.80;18.33;;;14.20;99.90;;;;;;4976703;28;20042;-86
2021/07/10 04:35:04;;;;;;;23.10;17.23;;;14.20;99.90;;;;;;4947625;28;20043;-87
2021/07/10 04:37:30;;;;;;;24.30;17.92;;;14.30;99.90;;;;;;4983098;28;20075;-86
2021/07/10 04:39:56;;;;;;;24.65;18.92;;;14.30;99.90;;;;;;4961415;28;20038;-86
2021/07/10 04:42:25;;;;;;;26.17;19.05;;;14.30;99.90;;;;;;4944497;28;20054;-86
2021/07/10 04:44:53;;;;;;;23.33;17.33;;;14.40;99.90;;;;;;4981132;28;20408;-86
2021/07/10 04:47:19;;;;;;;23.02;18.35;;;14.50;99.90;;;;;;4989716;28;20039;-86
2021/07/10 04:49:45;;;;;;;23.27;16.80;;;14.50;99.90;;;;;;4972352;28;20046;-86
2021/07/10 04:52:11;;;;;;;22.70;17.33;;;14.60;99.90;;;;;;4988210;28;20113;-86
2021/07/10 04:54:37;;;;;;;26.33;19.75;;;14.60;99.90;;;;;;4971189;28;20046;-88
2021/07/10 04:57:04;;;;;;;25.63;19.50;;;14.60;99.90;;;;;;4992774;28;20403;-87
2021/07/10 04:59:34;;;;;;;23.83;17.23;;;14.60;99.90;;;;;;4983355;28;20460;-87
2021/07/10 05:02:00;;;;;;;28.40;21.13;;;14.60;99.90;;;;;;4977933;28;20196;-86
2021/07/10 05:04:26;;;;;;;44.05;28.00;;;14.70;99.90;;;;;;4987309;28;20144;-87
2021/07/10 05:06:54;;;;;;;36.28;24.90;;;14.80;99.90;;;;;;4965837;28;20093;-86
2021/07/10 05:09:20;;;;;;;47.65;29.95;;;14.90;99.90;;;;;;4985418;28;20456;-86
2021/07/10 05:11:46;;;;;;;40.13;26.48;;;15.00;99.90;;;;;;4979584;28;20034;-86
2021/07/10 05:14:12;;;;;;;41.80;27.27;;;15.00;99.90;;;;;;4950910;28;20409;-86
2021/07/10 05:16:42;;;;;;;42.17;28.65;;;15.10;99.90;;;;;;4983243;28;20050;-85
2021/07/10 05:19:11;;;;;;;39.50;27.67;;;15.20;99.90;;;;;;4970850;28;20066;-85
2021/07/10 05:21:43;;;;;;;43.90;29.92;;;15.30;99.90;;;;;;4961292;28;20034;-87
2021/07/10 05:24:09;;;;;;;41.33;27.33;;;15.40;99.90;;;;;;4982019;28;20421;-87
2021/07/10 05:30:00;;;;;;;42.92;30.23;;;15.60;99.90;;;;;;4985579;28;20472;-86
2021/07/10 05:32:26;;;;;;;38.70;29.17;;;15.70;99.90;;;;;;4973603;28;20070;-85
2021/07/10 05:34:53;;;;;;;38.85;30.63;;;15.70;99.90;;;;;;4970761;28;20046;-86
2021/07/10 05:37:21;;;;;;;37.17;29.88;;;15.80;99.90;;;;;;4984870;28;20062;-86
2021/07/10 05:39:47;;;;;;;39.42;29.00;;;15.90;99.90;;;;;;4950748;28;20043;-85
2021/07/10 05:42:13;;;;;;;35.28;26.73;;;15.90;99.90;;;;;;4976782;28;20070;-85
2021/07/10 05:44:39;;;;;;;41.90;30.08;;;16.00;99.90;;;;;;4980676;28;20506;-84
2021/07/10 05:47:05;;;;;;;40.83;29.65;;;16.10;99.90;;;;;;4972426;28;20137;-85
2021/07/10 05:49:31;;;;;;;39.47;28.65;;;16.10;99.90;;;;;;4959547;28;20448;-84
2021/07/10 05:51:57;;;;;;;35.00;26.58;;;16.20;99.90;;;;;;4969255;28;20069;-84
2021/07/10 05:54:23;;;;;;;39.95;29.50;;;16.20;99.90;;;;;;4943972;28;20074;-85
2021/07/10 05:56:58;;;;;;;37.75;27.40;;;16.30;99.90;;;;;;4956250;28;20076;-84
2021/07/10 05:59:24;;;;;;;41.67;29.52;;;16.40;99.90;;;;;;4992103;28;20668;-85
2021/07/10 06:01:53;;;;;;;40.97;29.30;;;16.40;99.90;;;;;;4941313;28;20039;-85
2021/07/10 06:04:19;;;;;;;42.50;31.85;;;16.50;99.90;;;;;;4937855;28;20570;-83
2021/07/10 06:06:45;;;;;;;38.00;29.13;;;16.60;99.90;;;;;;5000462;28;20048;-83
2021/07/10 06:09:11;;;;;;;37.67;28.10;;;16.70;99.90;;;;;;4972844;28;20489;-84
2021/07/10 06:11:37;;;;;;;33.25;26.85;;;16.70;99.70;;;;;;4922040;28;20054;-83
2021/07/10 06:14:08;;;;;;;32.83;25.35;;;16.80;99.60;;;;;;4940271;28;20039;-82
2021/07/10 06:16:34;;;;;;;37.60;28.50;;;16.90;99.40;;;;;;4954431;28;20042;-81
2021/07/10 06:19:01;;;;;;;36.60;28.15;;;17.00;99.30;;;;;;4987023;28;20382;-83
2021/07/10 06:21:27;;;;;;;34.45;28.75;;;17.10;99.20;;;;;;4970652;28;20046;-83
2021/07/10 06:23:53;;;;;;;37.10;28.95;;;17.20;99.20;;;;;;4964384;28;20042;-83
2021/07/10 06:26:19;;;;;;;39.35;30.92;;;17.30;99.00;;;;;;4955620;28;20034;-83
2021/07/10 06:28:50;;;;;;;39.35;29.63;;;17.30;98.90;;;;;;4996348;28;20042;-83
2021/07/10 06:31:16;;;;;;;;;;;17.30;98.90;;;;;;4957429;28;20047;-83
2021/07/10 06:33:42;;;;;;;38.20;30.95;;;17.30;98.50;;;;;;4963998;28;19968;-82
2021/07/10 06:36:09;;;;;;;37.00;31.13;;;17.30;98.70;;;;;;4956839;28;20101;-83
2021/07/10 06:38:55;;;;;;;37.63;31.05;;;17.40;98.70;;;;;;4943125;28;20074;-83
2021/07/10 06:41:23;;;;;;;36.80;30.95;;;17.30;98.60;;;;;;4958643;28;20038;-82
2021/07/10 06:43:55;;;;;;;35.50;29.77;;;17.50;98.40;;;;;;4986804;28;20034;-84
2021/07/10 06:46:23;;;;;;;32.22;26.90;;;17.50;98.10;;;;;;4976750;28;20113;-82
2021/07/10 06:48:49;;;;;;;36.22;29.67;;;17.50;98.00;;;;;;4958693;28;20058;-82
2021/07/10 06:51:16;;;;;;;29.55;25.95;;;17.50;97.90;;;;;;4970569;28;20045;-82
2021/07/10 06:53:44;;;;;;;36.95;31.95;;;17.60;97.90;;;;;;4943469;28;20062;-83
2021/07/10 06:56:18;;;;;;;33.55;28.65;;;17.70;97.90;;;;;;4976568;28;20061;-83
2021/07/10 06:58:47;;;;;;;31.30;27.08;;;17.80;97.90;;;;;;4971573;28;20861;-82
2021/07/10 07:01:13;;;;;;;33.40;27.88;;;17.90;97.70;;;;;;4968411;28;20058;-82
2021/07/10 07:03:39;;;;;;;37.00;31.00;;;17.90;97.60;;;;;;4957534;28;20037;-82
2021/07/10 07:06:13;;;;;;;37.38;32.42;;;18.00;97.60;;;;;;4984551;28;20128;-83
2021/07/10 07:08:55;;;;;;;33.20;27.48;;;17.90;97.50;;;;;;4985682;28;20105;-83
2021/07/10 07:11:21;;;;;;;31.98;27.02;;;17.90;97.30;;;;;;4974702;28;20038;-82
2021/07/10 07:13:47;;;;;;;38.67;30.33;;;17.90;97.40;;;;;;4970689;28;20038;-81
2021/07/10 07:19:57;;;;;;;35.70;31.08;;;17.80;97.40;;;;;;4974969;28;20056;-83
2021/07/10 07:22:25;;;;;;;40.45;33.88;;;17.70;97.60;;;;;;4948816;28;20043;-84
2021/07/10 07:24:51;;;;;;;41.60;33.92;;;17.60;97.70;;;;;;4969969;28;20041;-85
2021/07/10 07:27:17;;;;;;;37.80;31.63;;;17.60;97.80;;;;;;4984482;28;20458;-84
2021/07/10 07:29:43;;;;;;;36.15;29.42;;;17.60;97.80;;;;;;4935535;28;20433;-84
2021/07/10 07:32:10;;;;;;;36.08;29.45;;;17.60;97.80;;;;;;4963316;28;20156;-84
2021/07/10 07:34:36;;;;;;;43.55;33.72;;;17.60;97.80;;;;;;4951819;28;21325;-84
2021/07/10 07:39:58;;;;;;;41.33;34.88;;;17.70;98.10;;;;;;4985012;28;20042;-85
2021/07/10 07:42:29;;;;;;;43.22;33.67;;;17.70;98.10;;;;;;4970966;28;20437;-85
2021/07/10 07:45:01;;;;;;;47.65;36.30;;;17.70;98.10;;;;;;5001958;28;20030;-87
2021/07/10 07:47:27;;;;;;;45.22;34.50;;;17.70;98.10;;;;;;4985971;28;20064;-84
2021/07/10 07:49:56;;;;;;;41.10;32.53;;;17.80;98.10;;;;;;4952337;28;20169;-85
2021/07/10 07:52:23;;;;;;;43.08;33.92;;;17.80;98.00;;;;;;4986104;28;20049;-85
2021/07/10 07:54:55;;;;;;;46.25;32.85;;;17.80;98.10;;;;;;4974049;28;20069;-87
2021/07/10 07:57:44;;;;;;;46.70;33.80;;;17.90;98.20;;;;;;4982426;28;20056;-86
2021/07/10 08:00:25;;;;;;;40.75;30.70;;;17.90;98.10;;;;;;4985561;28;20415;-86
2021/07/10 08:02:52;;;;;;;42.75;31.55;;;18.00;97.80;;;;;;5001049;28;20050;-85
2021/07/10 08:05:20;;;;;;;40.50;32.15;;;18.10;97.60;;;;;;4975486;28;20466;-87
2021/07/10 08:07:47;;;;;;;38.92;29.90;;;18.20;97.30;;;;;;4985755;28;20066;-84
2021/07/10 08:10:16;;;;;;;41.35;31.40;;;18.30;97.00;;;;;;4989858;28;20037;-83
2021/07/10 08:12:50;;;;;;;40.75;31.65;;;18.30;97.20;;;;;;5002378;28;20046;-84
2021/07/10 08:15:19;;;;;;;41.08;31.45;;;18.40;97.10;;;;;;5000645;28;20049;-85
2021/07/10 08:17:47;;;;;;;36.65;27.15;;;18.50;96.90;;;;;;4987791;28;20061;-85
2021/07/10 08:20:15;;;;;;;37.63;29.90;;;18.60;96.80;;;;;;4977243;28;20080;-83
2021/07/10 08:22:43;;;;;;;31.45;25.83;;;18.80;96.60;;;;;;5005946;28;20152;-82
2021/07/10 08:25:10;;;;;;;36.88;28.20;;;18.90;96.10;;;;;;4989450;28;20516;-82
2021/07/10 08:27:36;;;;;;;33.90;25.60;;;19.00;95.40;;;;;;5003249;28;20034;-84
2021/07/10 08:30:05;;;;;;;35.20;26.30;;;19.10;95.10;;;;;;4988457;28;20061;-82
2021/07/10 08:32:31;;;;;;;32.57;26.07;;;19.20;95.30;;;;;;4990180;28;20049;-82
2021/07/10 08:34:57;;;;;;;32.33;26.33;;;19.40;95.10;;;;;;4994353;28;20038;-83
2021/07/10 08:37:23;;;;;;;32.35;26.45;;;19.70;95.00;;;;;;4998454;28;20050;-83
2021/07/10 08:39:52;;;;;;;36.13;28.70;;;19.80;94.50;;;;;;4945712;28;20609;-83
2021/07/10 08:42:20;;;;;;;32.00;25.98;;;19.80;94.30;;;;;;4984815;28;20065;-82
2021/07/10 08:44:51;;;;;;;28.83;24.33;;;20.00;93.90;;;;;;4985662;28;20117;-82
2021/07/10 08:47:36;;;;;;;28.17;22.83;;;20.00;93.40;;;;;;4973430;28;20046;-82
2021/07/10 08:50:05;;;;;;;23.40;20.40;;;19.90;92.90;;;;;;4975457;28;20045;-84
2021/07/10 08:52:35;;;;;;;25.98;21.35;;;19.80;93.10;;;;;;4958792;28;20532;-82
2021/07/10 08:55:04;;;;;;;30.10;23.53;;;19.60;93.10;;;;;;4989875;28;20062;-83
2021/07/10 08:57:34;;;;;;;26.75;20.92;;;19.50;93.40;;;;;;4973583;28;20105;-82
2021/07/10 09:00:00;;;;;;;;;;;19.40;93.40;;;;;;4976587;28;20061;-82
2021/07/10 09:02:26;;;;;;;28.20;23.05;;;19.30;93.00;;;;;;4981575;28;19925;-83
2021/07/10 09:04:52;;;;;;;32.00;25.60;;;19.30;93.80;;;;;;4985131;28;20677;-82
2021/07/10 09:07:18;;;;;;;32.40;26.67;;;19.30;94.00;;;;;;4979624;28;20065;-82
2021/07/10 09:09:52;;;;;;;29.48;25.27;;;19.30;94.00;;;;;;4969928;28;20066;-83
2021/07/10 09:12:30;;;;;;;32.05;26.58;;;19.30;93.80;;;;;;4950737;28;20065;-82
2021/07/10 09:15:15;;;;;;;35.88;26.23;;;19.30;94.10;;;;;;4975381;28;20566;-82
2021/07/10 09:17:50;;;;;;;35.55;27.67;;;19.30;94.00;;;;;;4986321;28;20042;-82
2021/07/10 09:20:27;;;;;;;33.95;27.27;;;19.30;93.60;;;;;;4982367;28;20548;-84
2021/07/10 09:22:53;;;;;;;33.47;25.55;;;19.30;94.00;;;;;;4966843;28;20092;-83
2021/07/10 09:25:24;;;;;;;32.10;25.77;;;19.20;94.20;;;;;;4978403;28;20066;-82
2021/07/10 09:27:53;;;;;;;32.35;27.27;;;19.30;94.00;;;;;;4979536;28;20034;-82
2021/07/10 09:30:33;;;;;;;34.53;27.08;;;19.30;94.00;;;;;;4979215;28;20054;-83
2021/07/10 09:33:16;;;;;;;35.33;27.02;;;19.30;94.00;;;;;;4970584;28;20042;-82
2021/07/10 09:35:55;;;;;;;30.70;23.92;;;19.40;93.70;;;;;;4986978;28;20042;-83
2021/07/10 09:38:26;;;;;;;28.60;22.30;;;19.40;93.50;;;;;;4971300;28;20133;-82
2021/07/10 09:41:10;;;;;;;32.53;26.05;;;19.40;93.70;;;;;;4995883;28;20386;-83
2021/07/10 09:43:41;;;;;;;32.35;24.65;;;19.50;93.30;;;;;;4971431;28;20039;-85
2021/07/10 09:46:09;;;;;;;29.50;22.70;;;19.70;93.60;;;;;;4995637;28;20116;-84
2021/07/10 09:48:37;;;;;;;30.38;24.67;;;20.00;93.60;;;;;;4961867;28;20054;-85
2021/07/10 09:51:25;;;;;;;30.23;24.63;;;20.30;92.80;;;;;;4974350;28;20053;-82
2021/07/10 09:54:07;;;;;;;27.90;22.85;;;20.60;91.90;;;;;;4982030;28;20092;-83
2021/07/10 09:56:38;;;;;;;31.58;23.48;;;20.70;91.40;;;;;;4996697;28;20033;-82
2021/07/10 09:59:34;;;;;;;30.98;23.42;;;20.80;91.70;;;;;;4976947;28;20054;-82
2021/07/10 10:02:18;;;;;;;25.92;22.10;;;20.80;91.40;;;;;;4973651;28;20053;-82
2021/07/10 10:04:50;;;;;;;24.10;21.45;;;20.80;90.70;;;;;;4978986;28;20460;-82
2021/07/10 10:07:24;;;;;;;23.77;20.13;;;20.70;90.90;;;;;;4984877;28;20485;-83
2021/07/10 10:09:59;;;;;;;23.45;20.17;;;20.70;90.60;;;;;;4995246;28;20062;-83
2021/07/10 10:12:25;;;;;;;20.55;17.52;;;20.70;90.60;;;;;;4965094;28;20050;-83
2021/07/10 10:14:59;;;;;;;28.38;23.48;;;20.80;90.50;;;;;;4968408;28;20539;-84
2021/07/10 10:17:26;;;;;;;25.00;20.45;;;20.80;88.20;;;;;;4938202;28;20070;-84
2021/07/10 10:19:54;;;;;;;27.13;21.45;;;20.60;89.60;;;;;;4997445;28;20096;-83
2021/07/10 10:22:21;;;;;;;27.65;23.33;;;20.40;90.40;;;;;;4977467;28;20081;-85
2021/07/10 10:24:53;;;;;;;28.85;22.35;;;20.30;88.50;;;;;;4973070;28;20609;-86
2021/07/10 10:27:20;;;;;;;23.98;19.35;;;20.10;90.30;;;;;;4994925;28;20488;-88
2021/07/10 10:29:52;;;;;;;23.60;19.73;;;19.90;90.90;;;;;;4977327;28;20097;-78
2021/07/10 10:32:22;;;;;;;23.23;18.70;;;19.90;91.50;;;;;;4986511;28;20070;-85
2021/07/10 10:34:50;;;;;;;23.77;19.17;;;19.90;91.10;;;;;;4965125;28;20093;-82
2021/07/10 10:37:17;;;;;;;24.10;19.52;;;20.00;91.20;;;;;;4974138;28;20408;-87
2021/07/10 10:39:47;;;;;;;25.35;19.88;;;20.20;91.20;;;;;;4987908;28;20125;-83
2021/07/10 10:42:23;;;;;;;21.55;18.08;;;20.30;90.70;;;;;;4987288;28;20038;-85
2021/07/10 10:44:55;;;;;;;25.33;19.17;;;20.50;90.70;;;;;;4960718;28;20558;-87
2021/07/10 10:47:23;;;;;;;20.08;17.90;;;20.60;90.80;;;;;;4980409;28;20054;-85
2021/07/10 10:49:55;;;;;;;21.60;19.13;;;20.90;90.60;;;;;;4999156;28;20033;-85
2021/07/10 10:52:22;;;;;;;21.20;17.27;;;20.90;89.20;;;;;;5001074;28;20038;-87
2021/07/10 10:54:56;;;;;;;23.15;18.38;;;20.90;89.80;;;;;;4986478;28;20054;-86
2021/07/10 10:57:33;;;;;;;22.15;16.83;;;20.90;88.80;;;;;;4983731;28;20041;-86
2021/07/10 11:00:02;;;;;;;18.83;15.65;;;20.90;89.30;;;;;;5001459;28;20500;-86
2021/07/10 11:02:27;;;;;;;19.52;15.77;;;20.90;90.00;;;;;;4967655;28;20056;-85
2021/07/10 11:04:57;;;;;;;17.45;15.38;;;20.90;89.70;;;;;;5006669;28;20046;-86
2021/07/10 11:07:28;;;;;;;16.48;14.77;;;20.90;89.10;;;;;;4986494;28;20049;-85
2021/07/10 11:10:11;;;;;;;17.25;14.82;;;20.80;88.80;;;;;;5005393;28;20038;-85
2021/07/10 11:12:49;;;;;;;18.98;16.48;;;20.80;87.90;;;;;;4968298;28;20121;-84
2021/07/10 11:15:24;;;;;;;20.08;17.90;;;20.90;89.00;;;;;;4977181;28;20766;-84
2021/07/10 11:17:51;;;;;;;20.73;16.88;;;20.90;88.30;;;;;;4992451;28;20041;-86
2021/07/10 11:20:49;;;;;;;19.98;17.80;;;20.90;88.10;;;;;;4985263;28;20038;-85
2021/07/10 11:23:27;;;;;;;23.08;18.27;;;20.90;87.00;;;;;;5002234;28;20400;-84
2021/07/10 11:25:55;;;;;;;20.67;15.02;;;20.80;86.60;;;;;;4978800;28;20069;-87
2021/07/10 11:28:50;;;;;;;19.15;15.90;;;20.70;88.10;;;;;;5004676;28;20034;-88
2021/07/10 11:31:20;;;;;;;19.23;14.50;;;20.70;88.40;;;;;;4987600;28;20038;-85
2021/07/10 11:34:01;;;;;;;21.10;16.45;;;20.70;89.00;;;;;;4985352;28;20507;-83
2021/07/10 11:36:55;;;;;;;20.63;17.02;;;20.70;87.30;;;;;;4986909;28;20042;-85
2021/07/10 11:39:24;;;;;;;17.75;15.40;;;20.70;87.00;;;;;;4997262;28;20133;-86
2021/07/10 11:41:56;;;;;;;14.70;13.10;;;20.70;87.50;;;;;;4972336;28;20040;-84
2021/07/10 11:44:27;;;;;;;17.98;14.82;;;20.70;88.70;;;;;;4985812;28;20050;-85
2021/07/10 11:46:56;;;;;;;17.55;15.65;;;20.80;88.20;;;;;;4978073;28;20058;-84
2021/07/10 11:49:40;;;;;;;18.85;15.45;;;21.00;86.80;;;;;;4955858;28;20081;-84
2021/07/10 11:52:11;;;;;;;16.90;15.05;;;21.20;85.00;;;;;;4969466;28;20053;-86
2021/07/10 11:54:52;;;;;;;18.10;15.60;;;21.30;85.90;;;;;;4996849;28;20481;-86
2021/07/10 11:57:20;;;;;;;20.65;16.85;;;21.40;86.40;;;;;;4997542;28;20043;-84
2021/07/10 11:59:46;;;;;;;17.05;14.82;;;21.50;84.60;;;;;;4952438;28;20131;-87
2021/07/10 12:02:23;;;;;;;16.85;14.95;;;21.60;85.50;;;;;;4988991;28;20046;-84
2021/07/10 12:05:12;;;;;;;18.13;16.13;;;21.80;86.50;;;;;;4981564;28;20046;-83
2021/07/10 12:07:45;;;;;;;17.52;15.70;;;22.00;84.70;;;;;;4981800;28;20039;-84
2021/07/10 12:10:17;;;;;;;18.27;14.80;;;22.20;84.20;;;;;;4981772;28;20049;-85
2021/07/10 12:12:54;;;;;;;17.45;15.00;;;22.40;81.70;;;;;;4977587;28;20077;-85
2021/07/10 12:15:23;;;;;;;15.90;12.23;;;22.50;81.20;;;;;;4999615;28;20081;-84
2021/07/10 12:17:55;;;;;;;16.10;12.77;;;22.70;82.80;;;;;;5001673;28;20095;-86
2021/07/10 12:20:27;;;;;;;15.40;13.73;;;22.90;82.40;;;;;;4984440;28;20367;-87
2021/07/10 12:22:59;;;;;;;15.90;14.15;;;23.00;79.80;;;;;;4970457;28;20037;-84
2021/07/10 12:25:52;;;;;;;16.77;15.07;;;23.00;79.40;;;;;;4990645;28;20042;-82
2021/07/10 12:28:36;;;;;;;15.35;13.75;;;23.00;78.50;;;;;;4980078;28;20058;-83
2021/07/10 12:31:13;;;;;;;15.68;12.82;;;23.00;78.30;;;;;;4975755;28;20054;-84
2021/07/10 12:33:42;;;;;;;15.90;14.20;;;23.20;79.30;;;;;;4992940;28;20041;-83
2021/07/10 12:36:16;;;;;;;17.35;14.13;;;23.30;77.80;;;;;;4996378;28;20038;-86
2021/07/10 12:38:54;;;;;;;14.68;12.50;;;23.30;77.20;;;;;;4992213;28;20121;-84
2021/07/10 12:41:53;;;;;;;14.80;12.73;;;23.20;75.50;;;;;;5003202;28;20049;-83
2021/07/10 12:44:22;;;;;;;15.18;12.88;;;23.10;76.50;;;;;;4993647;28;20407;-82
2021/07/10 12:46:58;;;;;;;15.45;12.07;;;23.10;77.40;;;;;;4999059;28;20048;-81
2021/07/10 12:49:37;;;;;;;14.10;12.60;;;23.20;78.30;;;;;;4999244;28;20042;-83
2021/07/10 12:52:06;;;;;;;16.35;13.23;;;23.30;79.20;;;;;;5000321;28;20132;-81
2021/07/10 12:54:35;;;;;;;15.10;13.60;;;23.40;81.00;;;;;;4988196;28;20396;-82